createdAt,value
2022-10-17T00:01:42.819Z,93.35
2022-10-17T00:04:17.680Z,93.41
2022-10-17T00:06:53.934Z,93.54
2022-10-17T00:09:22.875Z,93.61
2022-10-17T00:11:52.223Z,93.54
2022-10-17T00:14:33.013Z,93.59
2022-10-17T00:17:11.862Z,93.50
2022-10-17T00:19:46.821Z,93.14
2022-10-17T00:22:23.830Z,93.25
2022-10-17T00:24:59.169Z,93.21
2022-10-17T00:27:45.544Z,93.41
2022-10-17T00:30:25.849Z,93.59
2022-10-17T00:32:54.871Z,94.15
2022-10-17T00:38:23.521Z,94.23
2022-10-17T00:40:52.999Z,94.17
2022-10-17T00:43:21.896Z,94.27
2022-10-17T00:45:53.848Z,94.11
2022-10-17T00:48:26.198Z,94.06
2022-10-17T00:50:55.608Z,94.03
2022-10-17T00:53:30.667Z,93.99
2022-10-17T00:56:17.408Z,93.84
2022-10-17T00:58:46.710Z,93.69
2022-10-17T01:01:22.037Z,93.35
2022-10-17T01:03:51.556Z,93.37
2022-10-17T01:06:22.764Z,93.68
2022-10-17T01:09:06.792Z,93.29
2022-10-17T01:11:47.289Z,93.10
2022-10-17T01:14:43.502Z,93.08
2022-10-17T01:17:57.442Z,93.15
2022-10-17T01:20:47.173Z,93.50
2022-10-17T01:23:39.980Z,93.74
2022-10-17T01:26:27.480Z,93.87
2022-10-17T01:29:24.467Z,94.18
2022-10-17T01:32:37.921Z,94.53
2022-10-17T01:35:21.748Z,94.79
2022-10-17T01:38:15.543Z,94.95
2022-10-17T01:41:00.536Z,96.32
2022-10-17T01:43:38.211Z,97.69
2022-10-17T01:46:23.807Z,97.96
2022-10-17T01:48:54.610Z,98.08
2022-10-17T01:51:40.074Z,98.15
2022-10-17T01:54:19.027Z,97.76
2022-10-17T01:56:59.646Z,97.39
2022-10-17T01:59:42.061Z,97.05
2022-10-17T02:02:21.473Z,96.88
2022-10-17T02:04:55.725Z,96.36
2022-10-17T02:07:26.985Z,96.28
2022-10-17T02:10:14.856Z,95.95
2022-10-17T02:13:19.105Z,95.84
2022-10-17T02:16:21.270Z,95.33
2022-10-17T02:19:28.078Z,95.06
2022-10-17T02:22:35.539Z,95.02
2022-10-17T02:25:20.139Z,94.88
2022-10-17T02:28:11.374Z,94.94
2022-10-17T02:30:56.100Z,94.96
2022-10-17T02:33:42.242Z,94.82
2022-10-17T02:36:23.220Z,95.07
2022-10-17T02:39:12.087Z,95.73
2022-10-17T02:41:55.683Z,95.81
2022-10-17T02:44:36.323Z,96.15
2022-10-17T02:47:25.580Z,95.85
2022-10-17T02:50:06.887Z,95.50
2022-10-17T02:52:50.768Z,95.11
2022-10-17T02:55:33.166Z,94.87
2022-10-17T02:58:36.554Z,94.93
2022-10-17T03:01:06.113Z,95.18
2022-10-17T03:03:35.286Z,95.30
2022-10-17T03:06:04.525Z,95.26
2022-10-17T03:08:33.769Z,96.12
2022-10-17T03:11:12.349Z,96.63
2022-10-17T03:13:48.730Z,97.18
2022-10-17T03:16:28.572Z,97.12
2022-10-17T03:19:05.047Z,97.20
2022-10-17T03:21:40.032Z,97.03
2022-10-17T03:24:21.409Z,96.80
2022-10-17T03:26:59.382Z,96.65
2022-10-17T03:29:33.350Z,97.21
2022-10-17T03:32:11.347Z,97.43
2022-10-17T03:34:43.194Z,97.57
2022-10-17T03:37:47.574Z,97.74
2022-10-17T03:40:21.887Z,97.91
2022-10-17T03:43:00.812Z,97.79
2022-10-17T03:45:34.941Z,97.72
2022-10-17T03:48:04.302Z,97.56
2022-10-17T03:50:35.304Z,97.54
2022-10-17T03:53:04.088Z,97.40
2022-10-17T03:55:43.297Z,97.25
2022-10-17T03:58:23.730Z,97.65
2022-10-17T04:00:53.035Z,97.85
2022-10-17T04:03:22.379Z,99.18
2022-10-17T04:06:05.673Z,99.14
2022-10-17T04:08:39.465Z,98.89
2022-10-17T04:11:10.167Z,98.96
2022-10-17T04:13:44.167Z,99.38
2022-10-17T04:16:17.309Z,99.41
2022-10-17T04:18:54.176Z,99.14
2022-10-17T04:21:29.472Z,98.85
2022-10-17T04:24:05.549Z,98.51
2022-10-17T04:26:35.138Z,98.33
2022-10-17T04:29:06.448Z,98.07
2022-10-17T04:31:36.631Z,97.96
2022-10-17T04:34:15.295Z,97.88
2022-10-17T04:37:14.354Z,97.69
2022-10-17T04:39:52.941Z,97.19
2022-10-17T04:42:38.586Z,97.16
2022-10-17T04:45:35.365Z,98.48
2022-10-17T04:48:16.538Z,99.34
2022-10-17T04:51:30.519Z,99.65
2022-10-17T04:54:02.496Z,99.72
2022-10-17T04:56:31.642Z,99.86
2022-10-17T04:59:00.934Z,99.96
2022-10-17T05:01:30.667Z,100.00
2022-10-17T05:04:10.085Z,99.89
2022-10-17T05:06:42.513Z,99.81
2022-10-17T05:09:17.115Z,99.91
2022-10-17T05:11:58.424Z,99.71
2022-10-17T05:14:51.694Z,99.46
2022-10-17T05:17:32.963Z,99.26
2022-10-17T05:20:12.858Z,99.40
2022-10-17T05:23:09.702Z,99.19
2022-10-17T05:25:45.222Z,98.97
2022-10-17T05:28:34.176Z,99.14
2022-10-17T05:31:14.113Z,99.21
2022-10-17T05:33:46.557Z,99.01
2022-10-17T05:36:31.664Z,99.44
2022-10-17T05:39:29.167Z,99.33
2022-10-17T05:41:58.759Z,99.43
2022-10-17T05:44:37.949Z,99.22
2022-10-17T05:47:12.431Z,99.02
2022-10-17T05:49:59.384Z,99.05
2022-10-17T05:52:47.331Z,98.86
2022-10-17T05:55:32.572Z,98.72
2022-10-17T05:58:22.585Z,98.70
2022-10-17T06:01:16.099Z,98.61
2022-10-17T06:04:15.242Z,98.48
2022-10-17T06:07:01.553Z,98.15
2022-10-17T06:09:43.297Z,97.97
2022-10-17T06:12:16.177Z,97.69
2022-10-17T06:14:46.576Z,97.58
2022-10-17T06:18:08.663Z,97.65
2022-10-17T06:20:51.758Z,97.49
2022-10-17T06:23:29.022Z,97.50
2022-10-17T06:26:13.430Z,97.31
2022-10-17T06:28:56.653Z,97.31
2022-10-17T06:31:48.161Z,97.20
2022-10-17T06:38:16.792Z,96.78
2022-10-17T06:41:48.308Z,96.63
2022-10-17T06:44:42.132Z,96.79
2022-10-17T06:47:27.494Z,96.89
2022-10-17T06:50:52.808Z,96.97
2022-10-17T06:53:55.180Z,97.08
2022-10-17T07:00:27.694Z,96.56
2022-10-17T07:03:31.614Z,96.43
2022-10-17T07:06:20.101Z,95.75
2022-10-17T07:09:14.683Z,95.52
2022-10-17T07:11:55.232Z,95.44
2022-10-17T07:15:22.060Z,95.33
2022-10-17T07:22:06.393Z,94.87
2022-10-17T07:24:46.903Z,94.41
2022-10-17T07:27:31.807Z,93.68
2022-10-17T07:30:14.962Z,93.22
2022-10-17T07:33:08.539Z,92.98
2022-10-17T07:35:54.819Z,92.75
2022-10-17T07:38:37.031Z,92.31
2022-10-17T07:41:34.278Z,91.67
2022-10-17T07:44:36.969Z,91.90
2022-10-17T07:47:41.576Z,91.70
2022-10-17T07:50:26.616Z,90.63
2022-10-17T07:53:07.732Z,90.53
2022-10-17T07:56:07.763Z,90.15
2022-10-17T07:58:53.692Z,89.51
2022-10-17T08:01:30.913Z,89.69
2022-10-17T08:04:24.292Z,88.94
2022-10-17T08:07:20.025Z,88.19
2022-10-17T08:10:04.838Z,87.28
2022-10-17T08:12:44.744Z,87.13
2022-10-17T08:15:30.910Z,85.87
2022-10-17T08:18:14.442Z,85.87
2022-10-17T08:21:10.091Z,85.78
2022-10-17T08:23:50.660Z,85.49
2022-10-17T08:29:36.670Z,83.58
2022-10-17T08:32:39.756Z,84.38
2022-10-17T08:35:52.195Z,82.36
2022-10-17T08:38:52.578Z,81.31
2022-10-17T08:42:32.387Z,80.94
2022-10-17T08:45:22.393Z,81.55
2022-10-17T08:48:21.812Z,82.17
2022-10-17T08:51:18.366Z,81.43
2022-10-17T08:57:54.159Z,80.19
2022-10-17T09:01:13.209Z,79.98
2022-10-17T09:04:12.314Z,79.76
2022-10-17T09:07:14.082Z,79.37
2022-10-17T09:10:37.284Z,78.81
2022-10-17T09:17:17.221Z,77.99
2022-10-17T09:20:18.381Z,77.24
2022-10-17T09:23:21.982Z,77.07
2022-10-17T09:26:26.939Z,76.18
2022-10-17T09:29:39.007Z,76.16
2022-10-17T09:32:50.059Z,75.72
2022-10-17T09:35:35.784Z,75.14
2022-10-17T09:38:33.491Z,72.64
2022-10-17T09:41:44.117Z,72.43
2022-10-17T09:45:29.057Z,73.51
2022-10-17T09:48:36.887Z,72.23
2022-10-17T09:51:29.677Z,71.15
2022-10-17T09:54:32.693Z,72.10
2022-10-17T09:57:40.946Z,70.41
2022-10-17T10:00:53.798Z,71.55
2022-10-17T10:03:39.465Z,71.25
2022-10-17T10:06:31.130Z,70.39
2022-10-17T10:09:14.364Z,70.34
2022-10-17T10:12:18.481Z,70.76
2022-10-17T10:14:55.399Z,71.07
2022-10-17T10:17:40.082Z,71.17
2022-10-17T10:20:36.702Z,68.51
2022-10-17T10:23:25.338Z,68.66
2022-10-17T10:26:18.904Z,67.22
2022-10-17T10:29:42.504Z,65.49
2022-10-17T10:32:40.553Z,66.37
2022-10-17T10:35:22.718Z,67.19
2022-10-17T10:38:21.838Z,65.28
2022-10-17T10:41:19.050Z,65.14
2022-10-17T10:43:56.690Z,65.75
2022-10-17T10:46:50.462Z,65.48
2022-10-17T10:49:46.601Z,64.91
2022-10-17T10:52:37.420Z,65.51
2022-10-17T10:55:57.443Z,64.67
2022-10-17T10:59:26.473Z,64.38
2022-10-17T11:06:29.572Z,64.38
2022-10-17T11:09:19.109Z,64.83
2022-10-17T11:11:58.622Z,65.18
2022-10-17T11:14:38.767Z,64.16
2022-10-17T11:17:41.390Z,63.95
2022-10-17T11:20:53.090Z,64.63
2022-10-17T11:24:07.011Z,63.56
2022-10-17T11:27:00.975Z,63.08
2022-10-17T11:29:57.688Z,62.91
2022-10-17T11:33:14.040Z,64.10
2022-10-17T11:36:01.584Z,63.88
2022-10-17T11:39:00.851Z,63.73
2022-10-17T11:42:19.510Z,62.18
2022-10-17T11:45:25.505Z,62.88
2022-10-17T11:48:21.544Z,64.13
2022-10-17T11:54:39.731Z,62.19
2022-10-17T11:58:19.006Z,60.71
2022-10-17T12:00:55.947Z,60.07
2022-10-17T12:04:02.019Z,61.24
2022-10-17T12:06:51.962Z,59.30
2022-10-17T12:09:50.277Z,56.57
2022-10-17T12:12:33.835Z,54.99
2022-10-17T12:15:12.554Z,53.60
2022-10-17T12:17:50.717Z,54.09
2022-10-17T12:20:26.531Z,53.23
2022-10-17T12:23:36.803Z,52.26
2022-10-17T12:26:09.748Z,50.59
2022-10-17T12:28:52.884Z,50.71
2022-10-17T12:31:34.364Z,50.81
2022-10-17T12:34:16.811Z,50.41
2022-10-17T12:36:50.774Z,51.11
2022-10-17T12:39:58.179Z,49.61
2022-10-17T12:43:02.952Z,49.52
2022-10-17T12:46:26.403Z,51.51
2022-10-17T12:49:36.951Z,52.67
2022-10-17T12:52:22.604Z,52.68
2022-10-17T12:55:13.088Z,51.93
2022-10-17T12:58:12.198Z,50.60
2022-10-17T13:01:23.282Z,50.37
2022-10-17T13:04:15.002Z,51.34
2022-10-17T13:06:50.722Z,52.44
2022-10-17T13:10:07.712Z,52.35
2022-10-17T13:12:47.946Z,51.59
2022-10-17T13:15:19.056Z,52.19
2022-10-17T13:18:11.858Z,51.32
2022-10-17T13:21:16.497Z,51.07
2022-10-17T13:23:55.024Z,50.81
2022-10-17T13:26:38.180Z,51.56
2022-10-17T13:29:31.428Z,51.52
2022-10-17T13:32:31.582Z,51.39
2022-10-17T13:35:17.787Z,51.73
2022-10-17T13:37:57.908Z,52.76
2022-10-17T13:40:51.263Z,54.05
2022-10-17T13:43:47.398Z,55.34
2022-10-17T13:46:37.517Z,55.99
2022-10-17T13:49:28.234Z,56.77
2022-10-17T13:52:05.773Z,57.30
2022-10-17T13:54:41.642Z,57.79
2022-10-17T13:57:22.950Z,57.97
2022-10-17T14:00:11.389Z,59.02
2022-10-17T14:02:42.915Z,59.40
2022-10-17T14:05:31.281Z,59.34
2022-10-17T14:08:28.506Z,59.82
2022-10-17T14:11:59.248Z,60.25
2022-10-17T14:15:05.060Z,60.76
2022-10-17T14:17:44.525Z,60.51
2022-10-17T14:23:42.003Z,61.56
2022-10-17T14:26:25.004Z,61.96
2022-10-17T14:29:14.135Z,62.32
2022-10-17T14:31:44.551Z,62.30
2022-10-17T14:35:37.360Z,62.74
2022-10-17T14:38:22.032Z,63.42
2022-10-17T14:41:44.133Z,63.70
2022-10-17T14:45:01.844Z,63.94
2022-10-17T14:47:44.469Z,64.21
2022-10-17T14:50:33.604Z,64.57
2022-10-17T14:53:30.889Z,64.78
2022-10-17T14:56:18.438Z,64.98
2022-10-17T14:58:55.952Z,65.06
2022-10-17T15:01:44.245Z,65.36
2022-10-17T15:04:32.976Z,65.73
2022-10-17T15:07:33.174Z,66.06
2022-10-17T15:10:28.849Z,66.37
2022-10-17T15:13:30.237Z,66.87
2022-10-17T15:16:36.454Z,67.03
2022-10-17T15:19:17.870Z,67.29
2022-10-17T15:21:49.217Z,67.44
2022-10-17T15:24:27.377Z,67.69
2022-10-17T15:27:33.181Z,67.67
2022-10-17T15:30:43.899Z,67.84
2022-10-17T15:33:19.490Z,68.03
2022-10-17T15:36:06.222Z,68.48
2022-10-17T15:38:42.473Z,68.57
2022-10-17T15:41:25.521Z,68.74
2022-10-17T15:44:12.776Z,68.71
2022-10-17T15:46:58.244Z,69.03
2022-10-17T15:49:46.407Z,69.22
2022-10-17T15:52:42.049Z,69.46
2022-10-17T15:55:30.020Z,69.52
2022-10-17T15:58:16.663Z,69.84
2022-10-17T16:01:11.925Z,70.23
2022-10-17T16:03:51.805Z,70.18
2022-10-17T16:06:32.921Z,70.32
2022-10-17T16:09:23.557Z,70.39
2022-10-17T16:12:04.121Z,70.92
2022-10-17T16:14:38.125Z,71.42
2022-10-17T16:17:25.869Z,71.45
2022-10-17T16:20:16.756Z,71.49
2022-10-17T16:23:06.101Z,71.89
2022-10-17T16:25:48.369Z,72.02
2022-10-17T16:28:32.024Z,72.51
2022-10-17T16:31:22.735Z,72.45
2022-10-17T16:34:20.284Z,72.54
2022-10-17T16:37:01.131Z,73.06
2022-10-17T16:39:58.786Z,73.09
2022-10-17T16:42:36.001Z,73.07
2022-10-17T16:45:17.625Z,73.27
2022-10-17T16:48:10.905Z,73.18
2022-10-17T16:53:54.478Z,73.55
2022-10-17T16:56:32.143Z,73.75
2022-10-17T16:59:17.660Z,73.73
2022-10-17T17:01:54.292Z,74.10
2022-10-17T17:04:42.613Z,74.34
2022-10-17T17:07:45.006Z,74.43
2022-10-17T17:10:38.237Z,74.42
2022-10-17T17:13:24.488Z,74.44
2022-10-17T17:16:16.178Z,74.72
2022-10-17T17:18:50.172Z,75.20
2022-10-17T17:21:29.165Z,75.58
2022-10-17T17:24:06.111Z,75.52
2022-10-17T17:26:42.291Z,75.70
2022-10-17T17:29:29.946Z,75.70
2022-10-17T17:32:36.245Z,75.62
2022-10-17T17:35:13.087Z,75.61
2022-10-17T17:37:43.008Z,76.07
2022-10-17T17:40:22.596Z,76.03
2022-10-17T17:42:56.690Z,75.94
2022-10-17T17:45:27.771Z,75.94
2022-10-17T17:48:04.977Z,76.19
2022-10-17T17:51:06.235Z,76.08
2022-10-17T17:53:41.228Z,76.48
2022-10-17T17:56:33.026Z,76.35
2022-10-17T17:59:14.532Z,76.54
2022-10-17T18:01:59.514Z,76.44
2022-10-17T18:04:41.113Z,76.47
2022-10-17T18:07:20.950Z,76.38
2022-10-17T18:09:52.473Z,76.48
2022-10-17T18:12:38.313Z,76.60
2022-10-17T18:15:34.213Z,76.69
2022-10-17T18:18:07.900Z,77.01
2022-10-17T18:20:55.266Z,76.96
2022-10-17T18:23:25.326Z,77.08
2022-10-17T18:26:32.226Z,76.81
2022-10-17T18:29:12.507Z,77.17
2022-10-17T18:31:44.303Z,77.67
2022-10-17T18:34:41.343Z,77.81
2022-10-17T18:37:31.290Z,77.59
2022-10-17T18:40:24.940Z,77.62
2022-10-17T18:43:27.713Z,77.86
2022-10-17T18:47:02.952Z,78.04
2022-10-17T18:50:28.899Z,78.40
2022-10-17T18:53:15.576Z,78.06
2022-10-17T18:56:02.658Z,78.01
2022-10-17T18:59:15.680Z,78.24
2022-10-17T19:02:11.696Z,78.19
2022-10-17T19:05:04.649Z,78.47
2022-10-17T19:08:14.365Z,78.54
2022-10-17T19:11:46.118Z,78.60
2022-10-17T19:14:52.924Z,78.44
2022-10-17T19:17:41.473Z,78.74
2022-10-17T19:20:24.847Z,78.69
2022-10-17T19:23:14.608Z,79.01
2022-10-17T19:25:49.754Z,79.13
2022-10-17T19:28:47.525Z,79.12
2022-10-17T19:31:42.282Z,78.99
2022-10-17T19:34:44.843Z,78.75
2022-10-17T19:37:57.414Z,79.21
2022-10-17T19:40:42.173Z,79.35
2022-10-17T19:43:52.735Z,79.46
2022-10-17T19:46:26.765Z,79.61
2022-10-17T19:49:21.755Z,79.83
2022-10-17T19:52:19.346Z,79.85
2022-10-17T19:55:02.686Z,79.89
2022-10-17T20:01:29.610Z,80.16
2022-10-17T20:04:09.468Z,80.15
2022-10-17T20:07:14.748Z,80.34
2022-10-17T20:10:08.354Z,80.82
2022-10-17T20:13:03.155Z,80.77
2022-10-17T20:16:03.771Z,81.38
2022-10-17T20:18:52.137Z,81.45
2022-10-17T20:21:37.506Z,81.94
2022-10-17T20:24:33.268Z,81.87
2022-10-17T20:27:32.604Z,82.27
2022-10-17T20:30:34.634Z,82.13
2022-10-17T20:33:31.922Z,82.32
2022-10-17T20:36:27.957Z,82.61
2022-10-17T20:39:18.602Z,82.51
2022-10-17T20:42:08.276Z,82.65
2022-10-17T20:45:03.162Z,83.08
2022-10-17T20:48:08.032Z,83.52
2022-10-17T20:50:52.104Z,83.51
2022-10-17T20:53:38.971Z,83.97
2022-10-17T20:56:26.359Z,83.84
2022-10-17T20:59:11.731Z,83.52
2022-10-17T21:01:57.534Z,84.26
2022-10-17T21:05:14.980Z,84.30
2022-10-17T21:08:08.022Z,84.69
2022-10-17T21:10:53.016Z,84.89
2022-10-17T21:13:41.364Z,85.12
2022-10-17T21:16:46.772Z,85.37
2022-10-17T21:20:11.444Z,85.51
2022-10-17T21:23:07.534Z,85.28
2022-10-17T21:26:32.482Z,85.09
2022-10-17T21:32:51.986Z,85.03
2022-10-17T21:36:15.806Z,85.44
2022-10-17T21:39:43.205Z,85.37
2022-10-17T21:42:53.599Z,85.58
2022-10-17T21:45:54.210Z,85.77
2022-10-17T21:48:58.260Z,86.32
2022-10-17T21:52:01.478Z,86.42
2022-10-17T21:54:49.234Z,86.29
2022-10-17T21:57:23.399Z,86.03
2022-10-17T22:00:23.840Z,86.63
2022-10-17T22:03:09.180Z,87.08
2022-10-17T22:09:20.217Z,87.13
2022-10-17T22:12:10.631Z,87.54
2022-10-17T22:18:13.383Z,87.23
2022-10-17T22:21:02.696Z,87.10
2022-10-17T22:24:01.008Z,87.30
2022-10-17T22:27:07.872Z,87.89
2022-10-17T22:29:59.776Z,88.47
2022-10-17T22:32:53.221Z,89.02
2022-10-17T22:35:29.233Z,88.88
2022-10-17T22:38:33.788Z,89.18
2022-10-17T22:41:11.558Z,88.97
2022-10-17T22:44:12.773Z,88.97
2022-10-17T22:47:01.424Z,88.67
2022-10-17T22:49:40.495Z,89.02
2022-10-17T22:52:26.725Z,89.16
2022-10-17T22:55:01.832Z,88.91
2022-10-17T22:58:01.889Z,88.87
2022-10-17T23:00:51.850Z,88.44
2022-10-17T23:03:26.406Z,88.59
2022-10-17T23:06:12.592Z,88.46
2022-10-17T23:08:58.816Z,88.65
2022-10-17T23:11:51.667Z,89.12
2022-10-17T23:14:44.590Z,89.10
2022-10-17T23:17:43.699Z,89.13
2022-10-17T23:20:27.136Z,89.03
2022-10-17T23:23:10.246Z,88.63
2022-10-17T23:26:26.633Z,88.92
2022-10-17T23:29:17.826Z,89.10
2022-10-17T23:32:24.998Z,89.02
2022-10-17T23:35:21.262Z,88.97
2022-10-17T23:38:12.067Z,89.25
2022-10-17T23:41:07.911Z,89.19
2022-10-17T23:43:53.316Z,88.97
2022-10-17T23:46:38.109Z,89.01
2022-10-17T23:49:49.794Z,89.32
2022-10-17T23:52:37.684Z,89.36
2022-10-17T23:55:27.772Z,88.96
2022-10-17T23:58:14.081Z,88.45
